Time;durP1;ratioP1;P1;durP2;ratioP2;P2;SDS_P1;SDS_P2;PMS_P1;PMS_P2;Temp;Humidity;BMP_temperature;BMP_pressure;BME280_temperature;BME280_humidity;BME280_pressure;Samples;Min_cycle;Max_cycle;Signal;HPM_P1;HPM_P2
2024/03/03 00:01:53;;;;;;;4.80;3.00;;;23.50;49.70;;;;;;5077766;28;20032;-65
2024/03/03 00:04:19;;;;;;;4.00;2.75;;;23.50;50.30;;;;;;5079069;28;20028;-65
2024/03/03 00:06:44;;;;;;;5.28;2.80;;;23.50;49.70;;;;;;5077424;28;20032;-65
2024/03/03 00:09:10;;;;;;;4.18;2.55;;;23.50;49.80;;;;;;5078782;28;20544;-63
2024/03/03 00:11:36;;;;;;;4.47;2.60;;;23.50;49.70;;;;;;5077133;28;20035;-63
2024/03/03 00:14:01;;;;;;;5.38;2.80;;;23.50;49.80;;;;;;5078726;28;20042;-65
2024/03/03 00:16:27;;;;;;;4.05;2.50;;;23.40;49.70;;;;;;5078198;28;20103;-63
2024/03/03 00:18:53;;;;;;;4.00;2.42;;;23.40;49.70;;;;;;5079254;28;20048;-62
2024/03/03 00:21:19;;;;;;;3.78;2.45;;;23.40;49.70;;;;;;5076693;28;20431;-63
2024/03/03 00:23:45;;;;;;;4.53;2.60;;;23.40;50.20;;;;;;5076935;28;20024;-64
2024/03/03 00:26:11;;;;;;;3.63;2.38;;;23.40;49.70;;;;;;5079249;28;20089;-63
2024/03/03 00:28:36;;;;;;;4.03;2.40;;;23.30;49.70;;;;;;5080933;28;20052;-64
2024/03/03 00:31:02;;;;;;;3.95;2.42;;;23.30;49.70;;;;;;5078752;28;20063;-64
2024/03/03 00:33:28;;;;;;;3.78;2.20;;;23.30;49.70;;;;;;5080529;28;20021;-63
2024/03/03 00:35:54;;;;;;;4.40;2.60;;;23.30;49.70;;;;;;5079319;28;20031;-64
2024/03/03 00:38:19;;;;;;;4.22;2.42;;;23.30;49.70;;;;;;5076951;28;20032;-63
2024/03/03 00:40:45;;;;;;;3.80;2.30;;;23.20;49.70;;;;;;5079276;28;20035;-65
2024/03/03 00:43:11;;;;;;;3.92;2.20;;;23.20;49.70;;;;;;5078869;28;20076;-65
2024/03/03 00:45:36;;;;;;;3.85;2.10;;;23.20;49.70;;;;;;5077184;28;20387;-65
2024/03/03 00:48:02;;;;;;;3.65;2.40;;;23.20;49.70;;;;;;5077936;28;20059;-65
2024/03/03 00:50:28;;;;;;;3.97;2.30;;;23.20;49.70;;;;;;5079294;28;20439;-65
2024/03/03 00:52:56;;;;;;;3.78;2.25;;;23.20;49.80;;;;;;5078319;28;20032;-65
2024/03/03 00:55:26;;;;;;;3.42;2.17;;;23.10;49.70;;;;;;5077482;28;20449;-65
2024/03/03 00:57:52;;;;;;;2.95;2.00;;;23.10;49.70;;;;;;5077958;28;21056;-65
2024/03/03 01:00:18;;;;;;;3.20;2.00;;;23.10;49.70;;;;;;5092828;28;20119;-65
2024/03/03 01:02:44;;;;;;;3.15;2.00;;;23.10;49.70;;;;;;5078913;28;20119;-65
2024/03/03 01:05:10;;;;;;;2.80;1.90;;;23.00;49.70;;;;;;5079574;28;20384;-65
2024/03/03 01:07:38;;;;;;;3.05;1.95;;;23.00;49.70;;;;;;5075745;28;20047;-64
2024/03/03 01:10:05;;;;;;;3.33;2.30;;;23.00;49.80;;;;;;5077553;28;20017;-65
2024/03/03 01:12:31;;;;;;;4.57;2.30;;;23.00;49.80;;;;;;5079993;28;20027;-64
2024/03/03 01:14:57;;;;;;;3.53;2.05;;;23.00;49.80;;;;;;5080849;28;20496;-65
2024/03/03 01:17:22;;;;;;;2.70;1.85;;;23.00;49.80;;;;;;5064199;28;20468;-65
2024/03/03 01:19:48;;;;;;;2.88;1.98;;;22.90;49.80;;;;;;5085758;28;20047;-66
2024/03/03 01:22:14;;;;;;;3.50;2.20;;;22.90;49.80;;;;;;5081402;28;20028;-66
2024/03/03 01:24:40;;;;;;;3.15;1.88;;;22.90;49.80;;;;;;5083149;28;20081;-66
2024/03/03 01:27:06;;;;;;;2.85;1.80;;;22.90;49.80;;;;;;5081822;28;20051;-66
2024/03/03 01:29:32;;;;;;;3.17;2.10;;;22.80;49.80;;;;;;5084564;28;20218;-66
2024/03/03 01:31:58;;;;;;;3.20;2.03;;;22.80;49.80;;;;;;5082249;28;20048;-66
2024/03/03 01:34:25;;;;;;;3.40;2.20;;;22.80;49.90;;;;;;5082248;28;20031;-66
2024/03/03 01:36:52;;;;;;;3.30;2.10;;;22.80;49.80;;;;;;5082155;28;20020;-66
2024/03/03 01:39:18;;;;;;;2.97;2.20;;;22.80;49.90;;;;;;5082077;28;20024;-66
2024/03/03 01:41:47;;;;;;;3.05;1.90;;;22.80;49.90;;;;;;5079449;28;20027;-66
2024/03/03 01:44:13;;;;;;;3.80;2.40;;;22.80;49.90;;;;;;5082474;28;20028;-66
2024/03/03 01:46:39;;;;;;;3.50;2.00;;;22.80;49.90;;;;;;5081348;28;20111;-68
2024/03/03 01:49:09;;;;;;;3.80;2.25;;;22.70;49.80;;;;;;5081170;28;20024;-65
2024/03/03 01:51:37;;;;;;;3.75;2.20;;;22.70;49.90;;;;;;5082468;28;20023;-64
2024/03/03 01:54:04;;;;;;;3.30;2.20;;;22.70;49.90;;;;;;5079181;28;20089;-65
2024/03/03 01:56:31;;;;;;;3.20;2.10;;;22.70;49.90;;;;;;5081984;28;20016;-64
2024/03/03 01:59:00;;;;;;;3.03;1.90;;;22.70;50.40;;;;;;5082266;28;20075;-65
2024/03/03 02:01:29;;;;;;;3.10;2.10;;;22.70;49.90;;;;;;5062668;28;20032;-65
2024/03/03 02:03:56;;;;;;;3.30;2.20;;;22.70;50.00;;;;;;5082296;28;20036;-64
2024/03/03 02:06:27;;;;;;;3.95;2.20;;;22.60;50.40;;;;;;5080565;28;20107;-65
2024/03/03 02:08:53;;;;;;;3.15;1.90;;;22.60;49.90;;;;;;5063463;28;20149;-66
2024/03/03 02:11:19;;;;;;;2.80;1.90;;;22.60;49.90;;;;;;5078308;28;20032;-66
2024/03/03 02:13:45;;;;;;;3.25;1.80;;;22.60;50.00;;;;;;5079543;28;20487;-66
2024/03/03 02:16:10;;;;;;;2.72;1.90;;;22.60;50.00;;;;;;5080655;28;20480;-66
2024/03/03 02:18:36;;;;;;;3.58;2.22;;;22.60;50.00;;;;;;5080713;28;20089;-66
2024/03/03 02:21:02;;;;;;;3.20;2.05;;;22.50;50.00;;;;;;5080791;28;20032;-66
2024/03/03 02:23:27;;;;;;;2.80;1.80;;;22.50;50.00;;;;;;5082649;28;20501;-66
2024/03/03 02:25:53;;;;;;;3.10;1.95;;;22.50;50.00;;;;;;5081257;28;20036;-66
2024/03/03 02:28:19;;;;;;;3.92;1.85;;;22.50;50.00;;;;;;5063537;28;20052;-66
2024/03/03 02:30:45;;;;;;;2.97;1.90;;;22.50;50.00;;;;;;5081850;28;20024;-66
2024/03/03 02:33:10;;;;;;;2.80;1.80;;;22.50;50.10;;;;;;5061667;28;20055;-66
2024/03/03 02:35:36;;;;;;;3.20;2.08;;;22.40;50.00;;;;;;5080974;28;20100;-66
2024/03/03 02:38:02;;;;;;;3.05;1.75;;;22.40;50.10;;;;;;5081507;28;20036;-66
2024/03/03 02:40:27;;;;;;;3.13;1.83;;;22.40;50.10;;;;;;5080953;28;20032;-66
2024/03/03 02:42:53;;;;;;;3.03;1.63;;;22.40;50.10;;;;;;5082110;28;20033;-66
2024/03/03 02:45:18;;;;;;;2.42;1.60;;;22.40;50.20;;;;;;5080467;28;20066;-66
2024/03/03 02:47:44;;;;;;;3.38;1.80;;;22.40;50.20;;;;;;5080241;28;20123;-66
2024/03/03 02:50:10;;;;;;;2.75;1.70;;;22.30;50.10;;;;;;5082473;28;20024;-66
2024/03/03 02:52:35;;;;;;;2.45;1.63;;;22.30;50.20;;;;;;5059091;28;20800;-66
2024/03/03 02:55:01;;;;;;;2.58;1.85;;;22.30;50.20;;;;;;5064537;28;20131;-66
2024/03/03 02:57:27;;;;;;;2.85;1.67;;;22.30;50.20;;;;;;5083040;28;20029;-66
2024/03/03 02:59:54;;;;;;;3.20;1.75;;;22.30;50.20;;;;;;5079468;28;20040;-63
2024/03/03 03:02:20;;;;;;;2.40;1.60;;;22.30;50.30;;;;;;5078989;28;20437;-62
2024/03/03 03:04:45;;;;;;;2.45;1.67;;;22.20;50.20;;;;;;5079971;28;20020;-62
2024/03/03 03:07:12;;;;;;;2.38;1.65;;;22.20;50.20;;;;;;5082335;28;20490;-62
2024/03/03 03:09:38;;;;;;;3.00;1.90;;;22.20;50.30;;;;;;5061311;28;20055;-63
2024/03/03 03:12:04;;;;;;;2.55;1.60;;;22.20;50.30;;;;;;5079373;28;20047;-62
2024/03/03 03:14:29;;;;;;;2.78;1.80;;;22.20;50.80;;;;;;5081408;28;20086;-62
2024/03/03 03:16:55;;;;;;;2.60;1.63;;;22.20;50.30;;;;;;5062890;28;20049;-63
2024/03/03 03:19:21;;;;;;;2.97;1.70;;;22.10;50.30;;;;;;5077850;28;20028;-65
2024/03/03 03:21:47;;;;;;;2.10;1.40;;;22.10;50.30;;;;;;5080037;28;20020;-64
2024/03/03 03:24:12;;;;;;;2.80;1.60;;;22.10;50.30;;;;;;5079663;28;20039;-65
2024/03/03 03:26:38;;;;;;;2.40;1.58;;;22.10;50.40;;;;;;5080882;28;20526;-65
2024/03/03 03:29:03;;;;;;;2.67;1.70;;;22.10;50.40;;;;;;5058944;28;20468;-64
2024/03/03 03:31:29;;;;;;;2.28;1.60;;;22.10;50.40;;;;;;5078863;28;20074;-64
2024/03/03 03:33:55;;;;;;;2.55;1.77;;;22.10;50.40;;;;;;5080635;28;20024;-65
2024/03/03 03:36:21;;;;;;;2.65;1.73;;;22.10;50.40;;;;;;5079920;28;20043;-65
2024/03/03 03:38:46;;;;;;;2.40;1.60;;;22.00;50.30;;;;;;5094822;28;20027;-63
2024/03/03 03:41:12;;;;;;;2.70;1.70;;;22.00;50.40;;;;;;5078609;28;20404;-64
2024/03/03 03:43:38;;;;;;;3.35;2.00;;;22.00;50.40;;;;;;5082847;28;20087;-63
2024/03/03 03:46:04;;;;;;;2.58;1.98;;;22.00;50.40;;;;;;5076127;28;20040;-63
2024/03/03 03:48:29;;;;;;;2.50;1.60;;;22.00;50.40;;;;;;5080694;28;20020;-63
2024/03/03 03:50:55;;;;;;;2.60;2.00;;;21.90;50.40;;;;;;5080003;28;20028;-64
2024/03/03 03:53:21;;;;;;;2.35;1.70;;;21.90;50.40;;;;;;5077893;28;20082;-63
2024/03/03 03:55:47;;;;;;;2.40;1.70;;;21.90;50.50;;;;;;5077807;28;20049;-62
2024/03/03 03:58:13;;;;;;;2.55;1.63;;;21.90;50.50;;;;;;5080462;28;20472;-64
2024/03/03 04:00:39;;;;;;;2.75;1.85;;;21.90;50.50;;;;;;5078377;28;20090;-63
2024/03/03 04:03:06;;;;;;;2.47;1.77;;;21.90;50.50;;;;;;5078042;28;20033;-63
2024/03/03 04:05:31;;;;;;;2.17;1.60;;;21.90;50.50;;;;;;5079190;28;20021;-63
2024/03/03 04:07:57;;;;;;;2.90;1.80;;;21.90;50.50;;;;;;5078123;28;20032;-63
2024/03/03 04:10:23;;;;;;;3.00;2.10;;;21.90;50.50;;;;;;5079066;28;20059;-66
2024/03/03 04:12:49;;;;;;;2.90;1.83;;;21.80;50.50;;;;;;5080044;28;20100;-66
2024/03/03 04:15:15;;;;;;;2.58;1.90;;;21.80;50.50;;;;;;5080025;28;20103;-66
2024/03/03 04:17:41;;;;;;;2.95;1.88;;;21.80;50.50;;;;;;5080315;28;20082;-66
2024/03/03 04:20:08;;;;;;;2.97;1.92;;;21.80;50.50;;;;;;5078557;28;20031;-66
2024/03/03 04:22:34;;;;;;;2.47;1.80;;;21.80;50.50;;;;;;5078574;28;20103;-66
2024/03/03 04:25:00;;;;;;;2.63;1.83;;;21.80;50.50;;;;;;5077212;28;20373;-66
2024/03/03 04:27:25;;;;;;;2.78;1.98;;;21.80;50.60;;;;;;5079576;28;20035;-66
2024/03/03 04:29:51;;;;;;;2.40;1.77;;;21.80;50.60;;;;;;5079701;28;20052;-63
2024/03/03 04:32:17;;;;;;;2.53;1.80;;;21.80;50.60;;;;;;5080218;28;20091;-63
2024/03/03 04:34:42;;;;;;;2.47;1.80;;;21.80;50.60;;;;;;5078122;28;20036;-64
2024/03/03 04:37:08;;;;;;;2.50;1.90;;;21.70;50.60;;;;;;5080202;28;20579;-63
2024/03/03 04:39:34;;;;;;;2.92;2.10;;;21.70;51.10;;;;;;5077751;28;20067;-63
2024/03/03 04:42:02;;;;;;;2.90;2.10;;;21.70;50.60;;;;;;5079530;28;20449;-63
2024/03/03 04:44:31;;;;;;;2.80;1.90;;;21.70;50.60;;;;;;5078516;28;20116;-63
2024/03/03 04:46:57;;;;;;;3.47;1.90;;;21.70;50.60;;;;;;5079122;28;20035;-62
2024/03/03 04:49:23;;;;;;;2.60;1.90;;;21.70;50.60;;;;;;5076483;28;20094;-65
2024/03/03 04:51:49;;;;;;;2.45;1.77;;;21.70;50.70;;;;;;5069179;28;20530;-65
2024/03/03 04:54:14;;;;;;;2.83;2.00;;;21.70;50.60;;;;;;5076794;28;20059;-65
2024/03/03 04:56:40;;;;;;;2.60;1.95;;;21.70;50.70;;;;;;5076942;28;20024;-65
2024/03/03 04:59:06;;;;;;;2.83;2.10;;;21.60;50.60;;;;;;5078630;28;20028;-64
2024/03/03 05:01:31;;;;;;;2.90;2.10;;;21.70;50.70;;;;;;5078579;28;20101;-65
2024/03/03 05:03:57;;;;;;;2.60;1.85;;;21.60;50.70;;;;;;5061461;28;20038;-65
2024/03/03 05:06:23;;;;;;;3.05;1.85;;;21.60;50.70;;;;;;5079914;28;20051;-64
2024/03/03 05:08:48;;;;;;;3.28;2.20;;;21.60;50.70;;;;;;5074930;28;20060;-64
2024/03/03 05:11:16;;;;;;;2.70;2.00;;;21.60;50.70;;;;;;5074996;28;20542;-65
2024/03/03 05:13:41;;;;;;;2.83;2.03;;;21.60;50.70;;;;;;5077800;28;20023;-65
2024/03/03 05:16:07;;;;;;;2.28;1.70;;;21.60;50.70;;;;;;5078397;28;20025;-65
2024/03/03 05:18:33;;;;;;;2.90;1.90;;;21.60;50.70;;;;;;5078664;28;20040;-65
2024/03/03 05:20:59;;;;;;;2.45;1.90;;;21.60;50.70;;;;;;5076881;28;20028;-65
2024/03/03 05:23:25;;;;;;;2.63;1.92;;;21.60;51.20;;;;;;5078105;28;20419;-65
2024/03/03 05:25:51;;;;;;;2.50;1.70;;;21.60;50.70;;;;;;5076262;28;20032;-65
2024/03/03 05:28:18;;;;;;;2.78;2.00;;;21.60;50.70;;;;;;5080013;28;20028;-65
2024/03/03 05:30:44;;;;;;;3.08;2.00;;;21.60;50.70;;;;;;5077712;28;20024;-65
2024/03/03 05:33:11;;;;;;;2.67;1.88;;;21.60;50.70;;;;;;5077305;28;20024;-64
2024/03/03 05:35:38;;;;;;;2.50;1.80;;;21.60;50.80;;;;;;5078362;28;20048;-64
2024/03/03 05:38:04;;;;;;;2.85;1.80;;;21.60;50.80;;;;;;5078095;28;20043;-65
2024/03/03 05:40:29;;;;;;;2.92;1.80;;;21.50;50.70;;;;;;5077197;28;20024;-64
2024/03/03 05:42:55;;;;;;;2.40;1.60;;;21.50;50.70;;;;;;5075316;28;20036;-65
2024/03/03 05:45:21;;;;;;;3.13;1.80;;;21.50;50.70;;;;;;5076998;28;20454;-63
2024/03/03 05:47:46;;;;;;;2.08;1.70;;;21.50;50.80;;;;;;5078195;28;20032;-63
2024/03/03 05:50:12;;;;;;;2.53;1.80;;;21.50;50.80;;;;;;5079258;28;20074;-63
2024/03/03 05:52:38;;;;;;;2.55;1.88;;;21.50;50.80;;;;;;5078507;28;20132;-64
2024/03/03 05:55:04;;;;;;;2.72;1.90;;;21.50;50.80;;;;;;5077387;28;20024;-63
2024/03/03 05:57:31;;;;;;;3.15;2.00;;;21.50;50.80;;;;;;5077795;28;20033;-63
2024/03/03 05:59:56;;;;;;;2.50;1.90;;;21.50;50.80;;;;;;5079684;28;20023;-66
2024/03/03 06:02:22;;;;;;;2.50;1.70;;;21.50;50.80;;;;;;5079696;28;20043;-66
2024/03/03 06:04:48;;;;;;;2.30;1.80;;;21.50;50.80;;;;;;5081296;28;20029;-66
2024/03/03 06:07:14;;;;;;;2.45;1.85;;;21.50;50.80;;;;;;5081812;28;20031;-66
2024/03/03 06:09:40;;;;;;;2.65;1.85;;;21.50;50.80;;;;;;5080403;28;20096;-66
2024/03/03 06:12:07;;;;;;;2.53;1.75;;;21.50;50.80;;;;;;5080639;28;20086;-66
2024/03/03 06:14:33;;;;;;;2.28;1.67;;;21.50;51.30;;;;;;5065523;28;20024;-66
2024/03/03 06:16:58;;;;;;;2.60;2.00;;;21.50;50.80;;;;;;5082861;28;20361;-66
2024/03/03 06:19:24;;;;;;;2.42;1.50;;;21.40;50.80;;;;;;5081204;28;20042;-66
2024/03/03 06:21:50;;;;;;;2.75;1.67;;;21.50;50.80;;;;;;5080614;28;20195;-66
2024/03/03 06:24:19;;;;;;;2.92;1.77;;;21.40;50.80;;;;;;5081148;28;20017;-66
2024/03/03 06:26:45;;;;;;;2.70;1.77;;;21.40;50.80;;;;;;5079666;28;20396;-66
2024/03/03 06:29:10;;;;;;;2.70;1.95;;;21.40;50.80;;;;;;5081178;28;20031;-66
2024/03/03 06:31:41;;;;;;;2.00;1.50;;;21.40;50.80;;;;;;5080893;28;20043;-66
2024/03/03 06:34:07;;;;;;;2.40;1.70;;;21.40;50.80;;;;;;5080110;28;20594;-66
2024/03/03 06:36:35;;;;;;;2.50;1.80;;;21.40;50.80;;;;;;5081333;28;20151;-66
2024/03/03 06:39:01;;;;;;;2.00;1.40;;;21.40;50.80;;;;;;5081491;28;20471;-67
2024/03/03 06:41:26;;;;;;;2.35;1.80;;;21.40;50.80;;;;;;5078363;28;20103;-65
2024/03/03 06:43:55;;;;;;;2.92;1.73;;;21.40;50.80;;;;;;5079679;28;20166;-68
2024/03/03 06:46:20;;;;;;;2.45;1.73;;;21.40;51.10;;;;;;5081275;28;20031;-69
2024/03/03 06:48:46;;;;;;;2.35;1.70;;;21.40;50.90;;;;;;5062600;28;20039;-66
2024/03/03 06:51:14;;;;;;;2.92;2.10;;;21.40;50.90;;;;;;5080903;28;20047;-63
2024/03/03 06:53:40;;;;;;;2.30;1.70;;;21.40;50.90;;;;;;5080324;28;20103;-64
2024/03/03 06:56:16;;;;;;;2.63;1.80;;;21.40;50.90;;;;;;5078755;28;20028;-63
2024/03/03 06:58:42;;;;;;;3.03;1.70;;;21.40;50.90;;;;;;5078942;28;20020;-65
2024/03/03 07:01:08;;;;;;;2.65;1.95;;;21.30;50.90;;;;;;5079082;28;20484;-63
2024/03/03 07:03:58;;;;;;;2.30;1.70;;;21.30;50.90;;;;;;5078557;28;20032;-63
2024/03/03 07:06:23;;;;;;;;;;;21.30;51.00;;;;;;5080533;28;20039;-64
2024/03/03 07:08:49;;;;;;;2.20;1.50;;;21.30;50.90;;;;;;5080978;28;19958;-64
2024/03/03 07:11:14;;;;;;;2.45;1.65;;;21.30;50.90;;;;;;5078657;28;20027;-64
2024/03/03 07:13:40;;;;;;;2.58;1.90;;;21.30;51.00;;;;;;5079986;28;20020;-64
2024/03/03 07:16:06;;;;;;;2.40;1.70;;;21.30;51.00;;;;;;5078981;28;20028;-64
2024/03/03 07:18:32;;;;;;;2.38;1.70;;;21.30;51.50;;;;;;5081882;28;20044;-64
2024/03/03 07:20:57;;;;;;;2.47;1.90;;;21.30;51.00;;;;;;5080197;28;20176;-65
2024/03/03 07:23:23;;;;;;;2.40;1.70;;;21.30;51.00;;;;;;5078899;28;20037;-65
2024/03/03 07:25:49;;;;;;;2.22;1.63;;;21.30;51.00;;;;;;5077901;28;20036;-64
2024/03/03 07:28:15;;;;;;;2.70;1.90;;;21.30;51.10;;;;;;5079748;28;20732;-64
2024/03/03 07:30:40;;;;;;;2.83;2.00;;;21.30;51.10;;;;;;5077287;28;20145;-65
2024/03/03 07:33:06;;;;;;;2.72;1.92;;;21.30;51.10;;;;;;5079468;28;20032;-64
2024/03/03 07:35:31;;;;;;;2.38;1.67;;;21.30;51.10;;;;;;5096558;28;20384;-64
2024/03/03 07:37:57;;;;;;;2.45;1.70;;;21.30;51.10;;;;;;5081091;28;20509;-66
2024/03/03 07:40:23;;;;;;;2.60;1.80;;;21.30;51.10;;;;;;5079368;28;20028;-64
2024/03/03 07:42:48;;;;;;;2.50;1.80;;;21.30;51.20;;;;;;5080123;28;20442;-65
2024/03/03 07:45:14;;;;;;;2.30;1.77;;;21.20;51.10;;;;;;5082011;28;20042;-64
2024/03/03 07:47:40;;;;;;;2.65;1.70;;;21.30;51.20;;;;;;5062449;28;20029;-65
2024/03/03 07:50:06;;;;;;;2.35;1.70;;;21.30;51.20;;;;;;5078943;28;20691;-68
2024/03/03 07:52:32;;;;;;;2.20;1.67;;;21.20;51.10;;;;;;5079733;28;20154;-68
2024/03/03 07:54:57;;;;;;;2.28;1.75;;;21.20;51.20;;;;;;5078573;28;20139;-68
2024/03/03 07:57:23;;;;;;;2.45;1.90;;;21.20;51.20;;;;;;5077704;28;20059;-68
2024/03/03 07:59:48;;;;;;;2.58;1.80;;;21.20;51.20;;;;;;5080403;28;20039;-69
2024/03/03 08:02:14;;;;;;;2.97;1.60;;;21.20;51.20;;;;;;5069803;28;20140;-68
2024/03/03 08:04:40;;;;;;;2.78;1.90;;;21.20;51.20;;;;;;5079496;28;20054;-68
2024/03/03 08:07:05;;;;;;;2.17;1.60;;;21.20;51.20;;;;;;5060502;28;20047;-68
2024/03/03 08:09:31;;;;;;;2.70;1.65;;;21.20;51.20;;;;;;5079459;28;20020;-68
2024/03/03 08:11:57;;;;;;;2.53;1.73;;;21.20;51.20;;;;;;5078427;28;20469;-67
2024/03/03 08:14:22;;;;;;;2.60;1.92;;;21.20;51.30;;;;;;5078071;28;20482;-68
2024/03/03 08:16:48;;;;;;;2.47;1.75;;;21.20;51.30;;;;;;5078627;28;20538;-68
2024/03/03 08:19:13;;;;;;;2.35;1.75;;;21.20;51.30;;;;;;5080307;28;20039;-65
2024/03/03 08:21:39;;;;;;;2.38;1.58;;;21.20;51.30;;;;;;5078807;28;20543;-64
2024/03/03 08:24:05;;;;;;;2.35;1.70;;;21.20;51.30;;;;;;5078364;28;20028;-64
2024/03/03 08:26:30;;;;;;;2.45;1.80;;;21.20;51.30;;;;;;5077531;28;20406;-65
2024/03/03 08:28:56;;;;;;;2.97;1.88;;;21.20;51.30;;;;;;5079746;28;20103;-64
2024/03/03 08:31:22;;;;;;;2.67;1.80;;;21.20;51.30;;;;;;5077022;28;20020;-63
2024/03/03 08:33:47;;;;;;;2.50;1.60;;;21.20;51.30;;;;;;5078644;28;20614;-64
2024/03/03 08:36:13;;;;;;;2.78;1.88;;;21.10;51.30;;;;;;5077200;28;20059;-64
2024/03/03 08:38:38;;;;;;;2.60;1.80;;;21.10;51.30;;;;;;5078045;28;20086;-64
2024/03/03 08:41:04;;;;;;;2.20;1.70;;;21.20;51.30;;;;;;5076732;28;20462;-65
2024/03/03 08:43:30;;;;;;;2.58;1.70;;;21.10;51.30;;;;;;5079965;28;20450;-64
2024/03/03 08:45:56;;;;;;;2.58;1.67;;;21.10;51.30;;;;;;5080826;28;20024;-64
2024/03/03 08:48:24;;;;;;;3.25;2.10;;;21.10;51.30;;;;;;5080289;28;20032;-64
2024/03/03 08:50:50;;;;;;;2.08;1.60;;;21.10;51.30;;;;;;5077061;28;20020;-64
2024/03/03 08:53:16;;;;;;;2.45;1.60;;;21.10;51.40;;;;;;5076263;28;20108;-64
2024/03/03 08:55:41;;;;;;;2.70;1.80;;;21.10;51.40;;;;;;5072549;28;20019;-64
2024/03/03 08:58:07;;;;;;;2.83;1.90;;;21.10;51.40;;;;;;5079357;28;20029;-64
2024/03/03 09:00:33;;;;;;;2.42;1.80;;;21.10;51.40;;;;;;5078093;28;20039;-65
2024/03/03 09:02:59;;;;;;;2.55;1.77;;;21.10;51.40;;;;;;5061406;28;20140;-65
2024/03/03 09:05:26;;;;;;;2.50;1.80;;;21.10;51.40;;;;;;5077539;28;20040;-65
2024/03/03 09:07:53;;;;;;;2.47;1.90;;;21.10;51.40;;;;;;5080043;28;20080;-65
2024/03/03 09:10:19;;;;;;;2.47;1.90;;;21.10;51.40;;;;;;5078085;28;20613;-65
2024/03/03 09:12:45;;;;;;;2.70;1.70;;;21.10;51.40;;;;;;5075987;28;20067;-65
2024/03/03 09:15:10;;;;;;;2.33;1.70;;;21.10;51.40;;;;;;5078169;28;20035;-65
2024/03/03 09:17:36;;;;;;;2.70;1.80;;;21.10;51.40;;;;;;5078927;28;20040;-66
2024/03/03 09:20:05;;;;;;;2.83;1.98;;;21.10;51.40;;;;;;5079934;28;20503;-65
2024/03/03 09:22:31;;;;;;;3.00;2.10;;;21.10;51.50;;;;;;5094653;28;20020;-65
2024/03/03 09:24:57;;;;;;;2.55;2.00;;;21.10;51.50;;;;;;5078041;28;20406;-65
2024/03/03 09:27:25;;;;;;;2.60;1.70;;;21.00;51.40;;;;;;5075070;28;20033;-65
2024/03/03 09:29:54;;;;;;;2.75;2.03;;;21.10;51.50;;;;;;5080038;28;20035;-65
2024/03/03 09:32:20;;;;;;;3.10;2.17;;;21.10;51.50;;;;;;5061213;28;20447;-65
2024/03/03 09:34:45;;;;;;;2.78;1.95;;;21.10;51.50;;;;;;5080703;28;20087;-65
2024/03/03 09:37:14;;;;;;;4.25;2.20;;;21.10;51.50;;;;;;5079859;28;20049;-65
2024/03/03 09:39:39;;;;;;;2.97;2.15;;;21.10;51.50;;;;;;5081116;28;20024;-65
2024/03/03 09:42:05;;;;;;;3.08;1.90;;;21.10;51.50;;;;;;5079992;28;20028;-65
2024/03/03 09:44:36;;;;;;;3.20;2.05;;;21.10;51.50;;;;;;5081964;28;20016;-65
2024/03/03 09:47:03;;;;;;;2.63;2.17;;;21.00;51.90;;;;;;5082866;28;20100;-65
2024/03/03 09:49:30;;;;;;;3.40;2.25;;;21.10;51.50;;;;;;5083026;28;20028;-65
2024/03/03 09:51:58;;;;;;;3.65;2.55;;;21.10;51.40;;;;;;5082754;28;20028;-65
2024/03/03 09:54:24;;;;;;;3.08;2.25;;;21.10;51.40;;;;;;5081101;28;20108;-65
2024/03/03 09:56:51;;;;;;;3.25;2.50;;;21.10;51.30;;;;;;5081495;28;20032;-65
2024/03/03 09:59:17;;;;;;;3.70;2.40;;;21.10;51.30;;;;;;5084137;28;20365;-65
2024/03/03 10:01:56;;;;;;;3.45;2.47;;;21.10;51.30;;;;;;5083972;28;20055;-65
2024/03/03 10:04:22;;;;;;;3.20;2.38;;;21.10;51.30;;;;;;5081208;28;20016;-65
2024/03/03 10:06:55;;;;;;;2.67;2.10;;;21.10;51.30;;;;;;5062087;28;20510;-65
2024/03/03 10:09:26;;;;;;;3.40;2.45;;;21.00;51.20;;;;;;5080170;28;20053;-62
2024/03/03 10:11:54;;;;;;;3.25;2.40;;;21.10;51.30;;;;;;5079932;28;20115;-63
2024/03/03 10:14:20;;;;;;;3.08;2.33;;;21.00;51.20;;;;;;5079706;28;20582;-62
2024/03/03 10:16:46;;;;;;;3.20;2.60;;;21.00;51.30;;;;;;5080571;28;20040;-63
2024/03/03 10:19:12;;;;;;;3.45;2.55;;;21.00;51.20;;;;;;5081954;28;20064;-62
2024/03/03 10:21:38;;;;;;;3.35;2.38;;;21.00;51.20;;;;;;5083002;28;20117;-67
2024/03/03 10:24:22;;;;;;;3.30;2.42;;;21.10;51.30;;;;;;5082360;28;20025;-63
2024/03/03 10:26:52;;;;;;;3.50;2.70;;;21.10;51.30;;;;;;5078506;28;20028;-63
2024/03/03 10:29:19;;;;;;;3.40;2.45;;;21.00;51.20;;;;;;5082117;28;20060;-62
2024/03/03 10:31:46;;;;;;;4.60;2.72;;;21.00;51.20;;;;;;5081270;28;20023;-62
2024/03/03 10:34:11;;;;;;;3.08;2.50;;;21.10;51.20;;;;;;5078282;28;20039;-63
2024/03/03 10:36:37;;;;;;;3.35;2.47;;;21.00;51.20;;;;;;5081619;28;20836;-62
2024/03/03 10:39:03;;;;;;;3.53;2.45;;;21.00;51.20;;;;;;5082423;28;20039;-65
2024/03/03 10:41:28;;;;;;;3.15;2.50;;;21.00;51.20;;;;;;5081908;28;20099;-65
2024/03/03 10:43:54;;;;;;;3.08;2.42;;;21.00;51.20;;;;;;5081055;28;20050;-65
2024/03/03 10:46:20;;;;;;;3.70;2.53;;;21.00;51.20;;;;;;5079109;28;20166;-65
2024/03/03 10:48:46;;;;;;;4.55;2.88;;;21.00;51.30;;;;;;5081735;28;20025;-65
2024/03/03 10:51:19;;;;;;;3.78;2.53;;;21.00;51.80;;;;;;5083030;28;20464;-65
2024/03/03 10:53:48;;;;;;;3.75;2.50;;;21.00;51.30;;;;;;5062519;28;20020;-65
2024/03/03 10:56:15;;;;;;;3.30;2.70;;;21.00;51.30;;;;;;5077059;28;20016;-65
2024/03/03 10:58:43;;;;;;;3.72;2.90;;;21.00;51.30;;;;;;5079587;28;20028;-65
2024/03/03 11:01:09;;;;;;;3.47;2.72;;;21.00;51.40;;;;;;5080664;28;20024;-65
2024/03/03 11:03:36;;;;;;;3.67;2.70;;;21.00;51.40;;;;;;5080273;28;20085;-65
2024/03/03 11:06:05;;;;;;;3.50;2.70;;;21.00;51.40;;;;;;5080777;28;20028;-65
2024/03/03 11:08:31;;;;;;;3.33;2.47;;;21.00;51.30;;;;;;5070961;28;20024;-65
2024/03/03 11:11:03;;;;;;;3.88;2.90;;;21.00;51.30;;;;;;5081930;28;20384;-65
2024/03/03 11:13:35;;;;;;;3.45;2.72;;;21.00;51.30;;;;;;5059010;28;20021;-65
2024/03/03 11:16:03;;;;;;;3.70;2.50;;;21.00;51.30;;;;;;5081658;28;20094;-65
2024/03/03 11:18:33;;;;;;;3.47;2.50;;;21.00;51.30;;;;;;5080366;28;20028;-65
2024/03/03 11:21:08;;;;;;;3.65;2.63;;;21.00;51.30;;;;;;5061146;28;20107;-65
2024/03/03 11:23:54;;;;;;;4.20;2.72;;;21.00;51.30;;;;;;5080370;28;20109;-65
2024/03/03 11:26:46;;;;;;;3.90;3.00;;;21.00;51.30;;;;;;5078223;28;20484;-66
2024/03/03 11:29:13;;;;;;;2.97;2.50;;;21.00;51.30;;;;;;5080043;28;20118;-65
2024/03/03 11:31:41;;;;;;;3.97;2.92;;;21.00;51.80;;;;;;5080023;28;20025;-66
2024/03/03 11:34:10;;;;;;;4.28;2.72;;;21.00;51.30;;;;;;5081882;28;20047;-66
2024/03/03 11:36:37;;;;;;;3.65;2.50;;;21.00;51.80;;;;;;5081340;28;20024;-66
2024/03/03 11:39:29;;;;;;;4.22;2.95;;;21.00;51.30;;;;;;5079145;28;20848;-66
2024/03/03 11:41:55;;;;;;;4.55;3.20;;;21.00;51.30;;;;;;5073608;28;20032;-65
2024/03/03 11:44:36;;;;;;;4.18;3.25;;;21.00;51.30;;;;;;5079569;28;20517;-66
2024/03/03 11:47:06;;;;;;;3.58;2.80;;;21.00;51.20;;;;;;5082335;28;20024;-66
2024/03/03 11:49:39;;;;;;;4.60;3.25;;;21.00;51.20;;;;;;5080538;28;20056;-65
2024/03/03 11:52:04;;;;;;;4.30;3.40;;;21.00;51.20;;;;;;5077345;28;20044;-66
2024/03/03 11:54:31;;;;;;;4.40;3.30;;;21.00;51.20;;;;;;5080383;28;20060;-65
2024/03/03 11:57:01;;;;;;;4.97;3.28;;;21.00;51.20;;;;;;5076401;28;20108;-66
2024/03/03 11:59:58;;;;;;;4.95;3.40;;;21.00;51.20;;;;;;5080154;28;20024;-65
2024/03/03 12:02:25;;;;;;;4.40;3.20;;;21.00;51.20;;;;;;5077608;28;20548;-65
2024/03/03 12:04:50;;;;;;;5.03;3.38;;;21.00;51.20;;;;;;5079339;28;20079;-66
2024/03/03 12:07:20;;;;;;;4.85;3.42;;;21.00;51.20;;;;;;5082051;28;20452;-65
2024/03/03 12:09:46;;;;;;;;;;;21.00;51.20;;;;;;5078164;28;20876;-65
2024/03/03 12:12:12;;;;;;;5.03;3.40;;;21.00;51.20;;;;;;5077646;28;19912;-66
2024/03/03 12:14:41;;;;;;;4.35;3.30;;;21.00;51.20;;;;;;5078058;28;20104;-65
2024/03/03 12:17:07;;;;;;;4.88;3.60;;;21.00;51.20;;;;;;5075706;28;20115;-65
2024/03/03 12:19:36;;;;;;;5.65;3.40;;;21.00;51.20;;;;;;5078565;28;20032;-65
2024/03/03 12:22:07;;;;;;;4.97;3.65;;;21.00;51.20;;;;;;5079225;28;20042;-65
2024/03/03 12:24:33;;;;;;;4.95;3.63;;;21.00;51.20;;;;;;5076667;28;20460;-65
2024/03/03 12:26:59;;;;;;;4.55;3.33;;;21.00;51.20;;;;;;5077003;28;20027;-65
2024/03/03 12:29:24;;;;;;;4.63;3.70;;;21.00;51.20;;;;;;5079287;28;20036;-66
2024/03/03 12:31:50;;;;;;;4.88;3.63;;;21.00;51.20;;;;;;5077730;28;20468;-66
2024/03/03 12:34:19;;;;;;;5.75;3.72;;;21.00;51.20;;;;;;5078403;28;20472;-66
2024/03/03 12:36:45;;;;;;;6.57;3.92;;;21.00;51.20;;;;;;5078374;28;20387;-66
2024/03/03 12:39:11;;;;;;;4.88;3.45;;;21.00;51.20;;;;;;5079339;28;20423;-62
2024/03/03 12:41:38;;;;;;;4.10;3.58;;;21.00;51.20;;;;;;5077786;28;20036;-63
2024/03/03 12:44:04;;;;;;;5.82;3.40;;;21.00;51.20;;;;;;5060693;28;20040;-63
2024/03/03 12:46:33;;;;;;;4.60;3.70;;;21.00;51.20;;;;;;5076826;28;20072;-64